sensor_id;sensor_type;location;lat;lon;timestamp;P1;durP1;ratioP1;P2;durP2;ratioP2
51298;SDS011;37382;45.192;9.790;2023-09-19T04:05:23;67.60;;;42.15;;
51298;SDS011;37382;45.192;9.790;2023-09-19T04:07:51;70.25;;;42.55;;
51298;SDS011;37382;45.192;9.790;2023-09-19T04:10:20;74.50;;;43.70;;
51298;SDS011;37382;45.192;9.790;2023-09-19T04:12:54;72.72;;;43.03;;
51298;SDS011;37382;45.192;9.790;2023-09-19T04:15:23;67.32;;;42.70;;
51298;SDS011;37382;45.192;9.790;2023-09-19T04:17:54;68.25;;;42.65;;
51298;SDS011;37382;45.192;9.790;2023-09-19T04:20:23;70.28;;;42.00;;
51298;SDS011;37382;45.192;9.790;2023-09-19T04:22:51;72.03;;;42.65;;
51298;SDS011;37382;45.192;9.790;2023-09-19T04:25:19;68.75;;;43.65;;
51298;SDS011;37382;45.192;9.790;2023-09-19T04:27:47;71.68;;;43.85;;
51298;SDS011;37382;45.192;9.790;2023-09-19T04:30:15;76.68;;;46.75;;
51298;SDS011;37382;45.192;9.790;2023-09-19T04:32:43;81.70;;;45.80;;
51298;SDS011;37382;45.192;9.790;2023-09-19T04:35:10;95.60;;;47.42;;
51298;SDS011;37382;45.192;9.790;2023-09-19T04:37:39;93.63;;;49.40;;
51298;SDS011;37382;45.192;9.790;2023-09-19T04:40:09;104.07;;;50.28;;
51298;SDS011;37382;45.192;9.790;2023-09-19T04:42:41;103.05;;;51.00;;
51298;SDS011;37382;45.192;9.790;2023-09-19T04:45:09;96.38;;;50.63;;
51298;SDS011;37382;45.192;9.790;2023-09-19T04:47:38;104.03;;;53.95;;
51298;SDS011;37382;45.192;9.790;2023-09-19T04:50:07;113.13;;;55.40;;
51298;SDS011;37382;45.192;9.790;2023-09-19T04:52:39;115.30;;;54.90;;
51298;SDS011;37382;45.192;9.790;2023-09-19T04:55:12;121.38;;;54.40;;
51298;SDS011;37382;45.192;9.790;2023-09-19T04:57:44;123.28;;;57.83;;
51298;SDS011;37382;45.192;9.790;2023-09-19T05:00:22;130.10;;;59.67;;
51298;SDS011;37382;45.192;9.790;2023-09-19T05:02:55;156.25;;;63.55;;
51298;SDS011;37382;45.192;9.790;2023-09-19T05:07:54;159.90;;;63.60;;
51298;SDS011;37382;45.192;9.790;2023-09-19T05:10:22;149.93;;;65.97;;
51298;SDS011;37382;45.192;9.790;2023-09-19T05:12:52;164.38;;;67.45;;
51298;SDS011;37382;45.192;9.790;2023-09-19T05:15:21;188.43;;;71.38;;
51298;SDS011;37382;45.192;9.790;2023-09-19T05:17:49;177.40;;;71.80;;
51298;SDS011;37382;45.192;9.790;2023-09-19T05:20:23;166.13;;;69.25;;
51298;SDS011;37382;45.192;9.790;2023-09-19T05:23:01;173.65;;;72.18;;
51298;SDS011;37382;45.192;9.790;2023-09-19T05:25:33;188.85;;;73.88;;
51298;SDS011;37382;45.192;9.790;2023-09-19T05:28:05;186.90;;;73.70;;
51298;SDS011;37382;45.192;9.790;2023-09-19T05:30:35;175.77;;;72.93;;
51298;SDS011;37382;45.192;9.790;2023-09-19T05:33:07;182.13;;;70.40;;
51298;SDS011;37382;45.192;9.790;2023-09-19T05:35:35;166.23;;;69.72;;
51298;SDS011;37382;45.192;9.790;2023-09-19T05:38:09;164.48;;;69.60;;
51298;SDS011;37382;45.192;9.790;2023-09-19T05:40:37;162.27;;;70.97;;
51298;SDS011;37382;45.192;9.790;2023-09-19T05:43:05;163.93;;;72.40;;
51298;SDS011;37382;45.192;9.790;2023-09-19T05:45:33;165.68;;;71.97;;
51298;SDS011;37382;45.192;9.790;2023-09-19T05:48:11;173.50;;;73.80;;
51298;SDS011;37382;45.192;9.790;2023-09-19T05:50:44;162.82;;;70.68;;
51298;SDS011;37382;45.192;9.790;2023-09-19T05:53:14;157.75;;;72.60;;
51298;SDS011;37382;45.192;9.790;2023-09-19T05:55:42;155.20;;;69.75;;
51298;SDS011;37382;45.192;9.790;2023-09-19T05:58:11;157.15;;;70.82;;
51298;SDS011;37382;45.192;9.790;2023-09-19T06:00:42;152.95;;;68.38;;
51298;SDS011;37382;45.192;9.790;2023-09-19T06:03:11;147.65;;;67.03;;
51298;SDS011;37382;45.192;9.790;2023-09-19T06:05:39;136.70;;;65.43;;
51298;SDS011;37382;45.192;9.790;2023-09-19T06:08:10;143.38;;;68.03;;
51298;SDS011;37382;45.192;9.790;2023-09-19T06:10:37;137.32;;;65.25;;
51298;SDS011;37382;45.192;9.790;2023-09-19T06:13:05;140.98;;;65.63;;
51298;SDS011;37382;45.192;9.790;2023-09-19T06:15:33;135.48;;;63.47;;
51298;SDS011;37382;45.192;9.790;2023-09-19T06:18:03;125.93;;;63.05;;
51298;SDS011;37382;45.192;9.790;2023-09-19T06:20:32;134.90;;;62.85;;
51298;SDS011;37382;45.192;9.790;2023-09-19T06:23:01;143.65;;;61.58;;
51298;SDS011;37382;45.192;9.790;2023-09-19T06:25:30;117.07;;;58.65;;
51298;SDS011;37382;45.192;9.790;2023-09-19T06:27:57;117.90;;;56.72;;
51298;SDS011;37382;45.192;9.790;2023-09-19T06:30:25;118.68;;;58.10;;
51298;SDS011;37382;45.192;9.790;2023-09-19T06:32:57;121.65;;;56.25;;
51298;SDS011;37382;45.192;9.790;2023-09-19T06:35:26;126.15;;;59.03;;
51298;SDS011;37382;45.192;9.790;2023-09-19T06:37:56;130.60;;;58.00;;
51298;SDS011;37382;45.192;9.790;2023-09-19T06:40:25;135.48;;;58.70;;
51298;SDS011;37382;45.192;9.790;2023-09-19T06:42:55;145.63;;;60.72;;
51298;SDS011;37382;45.192;9.790;2023-09-19T06:45:23;134.43;;;59.05;;
51298;SDS011;37382;45.192;9.790;2023-09-19T06:47:54;129.43;;;59.97;;
51298;SDS011;37382;45.192;9.790;2023-09-19T06:50:26;132.55;;;58.00;;
51298;SDS011;37382;45.192;9.790;2023-09-19T06:52:54;129.85;;;59.08;;
51298;SDS011;37382;45.192;9.790;2023-09-19T06:55:25;137.60;;;59.42;;
51298;SDS011;37382;45.192;9.790;2023-09-19T06:57:56;121.95;;;55.22;;
51298;SDS011;37382;45.192;9.790;2023-09-19T07:00:24;123.88;;;59.55;;
51298;SDS011;37382;45.192;9.790;2023-09-19T07:02:56;119.20;;;57.22;;
51298;SDS011;37382;45.192;9.790;2023-09-19T07:05:33;114.45;;;52.53;;
51298;SDS011;37382;45.192;9.790;2023-09-19T07:08:07;102.50;;;52.42;;
51298;SDS011;37382;45.192;9.790;2023-09-19T07:10:40;105.95;;;54.50;;
51298;SDS011;37382;45.192;9.790;2023-09-19T07:13:12;106.32;;;52.50;;
51298;SDS011;37382;45.192;9.790;2023-09-19T07:15:40;106.15;;;48.60;;
51298;SDS011;37382;45.192;9.790;2023-09-19T07:18:09;98.18;;;48.38;;
51298;SDS011;37382;45.192;9.790;2023-09-19T07:23:19;75.32;;;41.78;;
51298;SDS011;37382;45.192;9.790;2023-09-19T07:25:50;65.88;;;35.53;;
51298;SDS011;37382;45.192;9.790;2023-09-19T07:28:18;66.70;;;35.60;;
51298;SDS011;37382;45.192;9.790;2023-09-19T07:30:46;66.10;;;33.58;;
51298;SDS011;37382;45.192;9.790;2023-09-19T07:33:13;55.67;;;35.08;;
51298;SDS011;37382;45.192;9.790;2023-09-19T07:35:44;61.10;;;33.55;;
51298;SDS011;37382;45.192;9.790;2023-09-19T07:38:16;60.50;;;30.98;;
51298;SDS011;37382;45.192;9.790;2023-09-19T07:40:47;39.03;;;25.25;;
51298;SDS011;37382;45.192;9.790;2023-09-19T07:43:15;46.45;;;25.98;;
51298;SDS011;37382;45.192;9.790;2023-09-19T07:45:43;53.53;;;26.35;;
51298;SDS011;37382;45.192;9.790;2023-09-19T07:48:11;57.13;;;25.27;;
51298;SDS011;37382;45.192;9.790;2023-09-19T07:50:42;47.28;;;25.65;;
51298;SDS011;37382;45.192;9.790;2023-09-19T07:53:12;48.28;;;24.90;;
51298;SDS011;37382;45.192;9.790;2023-09-19T07:55:44;37.30;;;24.52;;
51298;SDS011;37382;45.192;9.790;2023-09-19T07:58:16;46.65;;;23.77;;
51298;SDS011;37382;45.192;9.790;2023-09-19T08:00:44;42.45;;;23.88;;
51298;SDS011;37382;45.192;9.790;2023-09-19T08:03:11;40.13;;;20.77;;
51298;SDS011;37382;45.192;9.790;2023-09-19T08:05:44;30.60;;;19.55;;
51298;SDS011;37382;45.192;9.790;2023-09-19T08:08:12;29.70;;;19.58;;
51298;SDS011;37382;45.192;9.790;2023-09-19T08:10:41;32.67;;;19.00;;
51298;SDS011;37382;45.192;9.790;2023-09-19T08:13:10;34.92;;;18.75;;
51298;SDS011;37382;45.192;9.790;2023-09-19T08:15:44;29.92;;;19.08;;
51298;SDS011;37382;45.192;9.790;2023-09-19T08:18:13;31.02;;;19.35;;
51298;SDS011;37382;45.192;9.790;2023-09-19T08:20:41;32.40;;;18.27;;
51298;SDS011;37382;45.192;9.790;2023-09-19T08:23:13;32.90;;;19.75;;
51298;SDS011;37382;45.192;9.790;2023-09-19T08:25:41;31.48;;;20.33;;
51298;SDS011;37382;45.192;9.790;2023-09-19T08:28:08;33.85;;;20.65;;
51298;SDS011;37382;45.192;9.790;2023-09-19T08:30:40;36.08;;;20.42;;
51298;SDS011;37382;45.192;9.790;2023-09-19T08:33:12;28.30;;;19.38;;
51298;SDS011;37382;45.192;9.790;2023-09-19T08:35:42;31.75;;;19.58;;
51298;SDS011;37382;45.192;9.790;2023-09-19T08:38:10;33.88;;;20.17;;
51298;SDS011;37382;45.192;9.790;2023-09-19T08:40:38;31.23;;;20.85;;
51298;SDS011;37382;45.192;9.790;2023-09-19T08:43:08;35.33;;;20.85;;
51298;SDS011;37382;45.192;9.790;2023-09-19T08:45:36;39.33;;;20.58;;
51298;SDS011;37382;45.192;9.790;2023-09-19T08:48:17;32.95;;;21.67;;
51298;SDS011;37382;45.192;9.790;2023-09-19T08:50:51;42.35;;;21.00;;
51298;SDS011;37382;45.192;9.790;2023-09-19T08:53:31;35.00;;;20.08;;
51298;SDS011;37382;45.192;9.790;2023-09-19T08:56:10;35.60;;;20.70;;
51298;SDS011;37382;45.192;9.790;2023-09-19T08:59:21;27.33;;;18.40;;
51298;SDS011;37382;45.192;9.790;2023-09-19T09:01:38;32.42;;;17.33;;
51298;SDS011;37382;45.192;9.790;2023-09-19T09:04:09;34.60;;;19.05;;
51298;SDS011;37382;45.192;9.790;2023-09-19T09:06:40;26.75;;;17.02;;
51298;SDS011;37382;45.192;9.790;2023-09-19T09:09:10;31.38;;;18.95;;
51298;SDS011;37382;45.192;9.790;2023-09-19T09:11:38;27.50;;;18.20;;
51298;SDS011;37382;45.192;9.790;2023-09-19T09:14:07;34.22;;;19.23;;
51298;SDS011;37382;45.192;9.790;2023-09-19T09:16:38;32.88;;;22.08;;
51298;SDS011;37382;45.192;9.790;2023-09-19T09:19:05;33.95;;;20.27;;
51298;SDS011;37382;45.192;9.790;2023-09-19T09:21:34;34.30;;;20.38;;
51298;SDS011;37382;45.192;9.790;2023-09-19T09:26:58;32.22;;;19.95;;
51298;SDS011;37382;45.192;9.790;2023-09-19T09:32:30;28.52;;;18.23;;
51298;SDS011;37382;45.192;9.790;2023-09-19T09:35:09;29.00;;;18.77;;
51298;SDS011;37382;45.192;9.790;2023-09-19T09:37:40;27.67;;;18.35;;
51298;SDS011;37382;45.192;9.790;2023-09-19T09:40:11;26.63;;;16.33;;
51298;SDS011;37382;45.192;9.790;2023-09-19T09:42:42;32.05;;;15.85;;
51298;SDS011;37382;45.192;9.790;2023-09-19T09:45:14;26.15;;;14.48;;
51298;SDS011;37382;45.192;9.790;2023-09-19T09:47:45;20.48;;;13.30;;
51298;SDS011;37382;45.192;9.790;2023-09-19T09:50:25;22.60;;;12.32;;
51298;SDS011;37382;45.192;9.790;2023-09-19T09:53:22;18.58;;;12.20;;
51298;SDS011;37382;45.192;9.790;2023-09-19T09:56:04;21.42;;;12.23;;
51298;SDS011;37382;45.192;9.790;2023-09-19T09:58:34;16.23;;;10.40;;
51298;SDS011;37382;45.192;9.790;2023-09-19T10:01:16;19.67;;;9.68;;
51298;SDS011;37382;45.192;9.790;2023-09-19T10:03:45;21.77;;;10.90;;
51298;SDS011;37382;45.192;9.790;2023-09-19T10:06:18;17.95;;;10.43;;
51298;SDS011;37382;45.192;9.790;2023-09-19T10:14:15;15.90;;;9.48;;
51298;SDS011;37382;45.192;9.790;2023-09-19T10:16:46;14.52;;;10.07;;
51298;SDS011;37382;45.192;9.790;2023-09-19T10:19:16;15.55;;;8.85;;
51298;SDS011;37382;45.192;9.790;2023-09-19T10:21:54;15.82;;;9.40;;
51298;SDS011;37382;45.192;9.790;2023-09-19T10:24:24;25.05;;;10.00;;
51298;SDS011;37382;45.192;9.790;2023-09-19T10:26:53;18.80;;;9.07;;
51298;SDS011;37382;45.192;9.790;2023-09-19T10:31:56;22.53;;;9.30;;
51298;SDS011;37382;45.192;9.790;2023-09-19T10:34:28;22.40;;;8.20;;
51298;SDS011;37382;45.192;9.790;2023-09-19T10:36:59;14.77;;;8.95;;
51298;SDS011;37382;45.192;9.790;2023-09-19T10:39:35;14.73;;;7.63;;
51298;SDS011;37382;45.192;9.790;2023-09-19T10:42:09;14.88;;;8.35;;
51298;SDS011;37382;45.192;9.790;2023-09-19T10:44:45;15.90;;;7.78;;
51298;SDS011;37382;45.192;9.790;2023-09-19T10:47:20;20.92;;;8.32;;
51298;SDS011;37382;45.192;9.790;2023-09-19T10:49:51;14.02;;;7.47;;
51298;SDS011;37382;45.192;9.790;2023-09-19T10:52:22;24.65;;;7.30;;
51298;SDS011;37382;45.192;9.790;2023-09-19T10:54:54;17.17;;;7.68;;
51298;SDS011;37382;45.192;9.790;2023-09-19T10:57:25;19.30;;;7.88;;
51298;SDS011;37382;45.192;9.790;2023-09-19T11:00:02;16.95;;;7.93;;
51298;SDS011;37382;45.192;9.790;2023-09-19T11:05:39;14.93;;;6.45;;
51298;SDS011;37382;45.192;9.790;2023-09-19T11:08:13;19.35;;;6.53;;
51298;SDS011;37382;45.192;9.790;2023-09-19T11:10:50;11.73;;;6.07;;
51298;SDS011;37382;45.192;9.790;2023-09-19T11:13:25;13.90;;;5.50;;
51298;SDS011;37382;45.192;9.790;2023-09-19T11:16:03;13.25;;;5.90;;
51298;SDS011;37382;45.192;9.790;2023-09-19T11:26:44;13.68;;;5.90;;
51298;SDS011;37382;45.192;9.790;2023-09-19T11:29:25;15.55;;;5.88;;
51298;SDS011;37382;45.192;9.790;2023-09-19T11:32:02;13.50;;;5.57;;
51298;SDS011;37382;45.192;9.790;2023-09-19T11:42:43;15.18;;;4.45;;
51298;SDS011;37382;45.192;9.790;2023-09-19T11:48:22;12.97;;;4.57;;
51298;SDS011;37382;45.192;9.790;2023-09-19T11:50:52;12.77;;;4.60;;
51298;SDS011;37382;45.192;9.790;2023-09-19T11:53:21;12.70;;;4.32;;
51298;SDS011;37382;45.192;9.790;2023-09-19T11:55:53;12.52;;;4.53;;
51298;SDS011;37382;45.192;9.790;2023-09-19T11:58:21;11.55;;;5.47;;
51298;SDS011;37382;45.192;9.790;2023-09-19T12:00:53;14.05;;;4.65;;
51298;SDS011;37382;45.192;9.790;2023-09-19T12:03:27;20.65;;;5.07;;
51298;SDS011;37382;45.192;9.790;2023-09-19T12:05:58;16.65;;;4.95;;
51298;SDS011;37382;45.192;9.790;2023-09-19T12:08:29;14.50;;;4.30;;
51298;SDS011;37382;45.192;9.790;2023-09-19T12:11:00;11.18;;;3.90;;
51298;SDS011;37382;45.192;9.790;2023-09-19T12:13:29;16.40;;;4.30;;
51298;SDS011;37382;45.192;9.790;2023-09-19T12:16:01;13.48;;;4.20;;
51298;SDS011;37382;45.192;9.790;2023-09-19T12:18:29;10.05;;;4.32;;
51298;SDS011;37382;45.192;9.790;2023-09-19T12:21:00;8.77;;;3.95;;
51298;SDS011;37382;45.192;9.790;2023-09-19T12:23:32;16.25;;;4.43;;
51298;SDS011;37382;45.192;9.790;2023-09-19T12:26:02;16.65;;;4.78;;
51298;SDS011;37382;45.192;9.790;2023-09-19T12:28:41;17.23;;;5.10;;
51298;SDS011;37382;45.192;9.790;2023-09-19T12:31:11;23.50;;;5.53;;
51298;SDS011;37382;45.192;9.790;2023-09-19T12:33:39;17.20;;;5.38;;
51298;SDS011;37382;45.192;9.790;2023-09-19T12:36:23;13.68;;;4.40;;
51298;SDS011;37382;45.192;9.790;2023-09-19T12:39:01;16.88;;;4.70;;
51298;SDS011;37382;45.192;9.790;2023-09-19T12:41:37;15.07;;;4.80;;
51298;SDS011;37382;45.192;9.790;2023-09-19T12:44:05;18.30;;;5.82;;
51298;SDS011;37382;45.192;9.790;2023-09-19T12:46:36;14.63;;;5.90;;
51298;SDS011;37382;45.192;9.790;2023-09-19T12:49:14;19.48;;;5.25;;
51298;SDS011;37382;45.192;9.790;2023-09-19T12:51:45;10.65;;;4.20;;
51298;SDS011;37382;45.192;9.790;2023-09-19T12:54:15;9.85;;;4.40;;
51298;SDS011;37382;45.192;9.790;2023-09-19T12:56:46;9.20;;;3.95;;
51298;SDS011;37382;45.192;9.790;2023-09-19T12:59:17;14.88;;;4.50;;
51298;SDS011;37382;45.192;9.790;2023-09-19T13:02:04;15.57;;;4.15;;
51298;SDS011;37382;45.192;9.790;2023-09-19T13:04:34;8.13;;;4.22;;
51298;SDS011;37382;45.192;9.790;2023-09-19T13:07:07;12.32;;;3.92;;
51298;SDS011;37382;45.192;9.790;2023-09-19T13:09:36;16.70;;;3.85;;
51298;SDS011;37382;45.192;9.790;2023-09-19T13:12:33;22.50;;;4.70;;
51298;SDS011;37382;45.192;9.790;2023-09-19T13:15:10;19.00;;;4.60;;
51298;SDS011;37382;45.192;9.790;2023-09-19T13:17:44;13.02;;;4.25;;
51298;SDS011;37382;45.192;9.790;2023-09-19T13:20:24;15.75;;;4.22;;
51298;SDS011;37382;45.192;9.790;2023-09-19T13:22:57;12.88;;;3.85;;
51298;SDS011;37382;45.192;9.790;2023-09-19T13:25:35;15.77;;;3.80;;
51298;SDS011;37382;45.192;9.790;2023-09-19T13:28:07;11.70;;;3.55;;
51298;SDS011;37382;45.192;9.790;2023-09-19T13:30:37;11.50;;;3.40;;
51298;SDS011;37382;45.192;9.790;2023-09-19T13:33:10;9.82;;;3.70;;
51298;SDS011;37382;45.192;9.790;2023-09-19T13:35:40;13.23;;;3.17;;
51298;SDS011;37382;45.192;9.790;2023-09-19T13:38:08;10.00;;;3.25;;
51298;SDS011;37382;45.192;9.790;2023-09-19T13:40:40;18.05;;;3.83;;
51298;SDS011;37382;45.192;9.790;2023-09-19T13:43:09;13.57;;;3.67;;
51298;SDS011;37382;45.192;9.790;2023-09-19T13:45:38;17.05;;;4.03;;
51298;SDS011;37382;45.192;9.790;2023-09-19T13:48:09;15.23;;;3.65;;
51298;SDS011;37382;45.192;9.790;2023-09-19T13:50:38;14.90;;;3.08;;
51298;SDS011;37382;45.192;9.790;2023-09-19T13:55:37;12.73;;;3.60;;
51298;SDS011;37382;45.192;9.790;2023-09-19T13:58:05;13.68;;;3.50;;
51298;SDS011;37382;45.192;9.790;2023-09-19T14:00:34;12.45;;;3.80;;
51298;SDS011;37382;45.192;9.790;2023-09-19T14:03:01;15.23;;;3.50;;
51298;SDS011;37382;45.192;9.790;2023-09-19T14:05:32;17.15;;;3.65;;
51298;SDS011;37382;45.192;9.790;2023-09-19T14:07:59;13.07;;;3.25;;
51298;SDS011;37382;45.192;9.790;2023-09-19T14:10:29;9.50;;;2.83;;
51298;SDS011;37382;45.192;9.790;2023-09-19T14:12:58;10.55;;;3.30;;
51298;SDS011;37382;45.192;9.790;2023-09-19T14:15:27;16.92;;;3.30;;
51298;SDS011;37382;45.192;9.790;2023-09-19T14:17:58;16.23;;;3.42;;
51298;SDS011;37382;45.192;9.790;2023-09-19T14:20:27;16.08;;;3.30;;
51298;SDS011;37382;45.192;9.790;2023-09-19T14:22:54;17.08;;;2.90;;
51298;SDS011;37382;45.192;9.790;2023-09-19T14:25:22;7.30;;;2.53;;
51298;SDS011;37382;45.192;9.790;2023-09-19T14:27:51;8.07;;;3.20;;
51298;SDS011;37382;45.192;9.790;2023-09-19T14:30:19;11.65;;;3.00;;
51298;SDS011;37382;45.192;9.790;2023-09-19T14:32:48;8.55;;;3.10;;
51298;SDS011;37382;45.192;9.790;2023-09-19T14:35:15;11.07;;;3.30;;
51298;SDS011;37382;45.192;9.790;2023-09-19T14:37:43;18.10;;;3.15;;
51298;SDS011;37382;45.192;9.790;2023-09-19T14:40:12;23.40;;;3.60;;
51298;SDS011;37382;45.192;9.790;2023-09-19T14:42:43;13.13;;;3.35;;
51298;SDS011;37382;45.192;9.790;2023-09-19T14:45:12;8.43;;;2.73;;
51298;SDS011;37382;45.192;9.790;2023-09-19T14:47:41;14.60;;;2.83;;
51298;SDS011;37382;45.192;9.790;2023-09-19T14:50:09;12.43;;;3.50;;
51298;SDS011;37382;45.192;9.790;2023-09-19T14:52:38;10.73;;;2.92;;
51298;SDS011;37382;45.192;9.790;2023-09-19T14:55:07;8.95;;;3.28;;
51298;SDS011;37382;45.192;9.790;2023-09-19T14:57:38;13.23;;;3.08;;
51298;SDS011;37382;45.192;9.790;2023-09-19T15:00:07;9.93;;;2.88;;
51298;SDS011;37382;45.192;9.790;2023-09-19T15:02:39;9.98;;;2.67;;
51298;SDS011;37382;45.192;9.790;2023-09-19T15:05:08;16.48;;;3.50;;
51298;SDS011;37382;45.192;9.790;2023-09-19T15:07:37;10.82;;;3.40;;
51298;SDS011;37382;45.192;9.790;2023-09-19T15:10:05;20.00;;;3.60;;
51298;SDS011;37382;45.192;9.790;2023-09-19T15:12:34;12.55;;;2.88;;
51298;SDS011;37382;45.192;9.790;2023-09-19T15:15:02;13.82;;;3.22;;
51298;SDS011;37382;45.192;9.790;2023-09-19T15:17:35;19.83;;;3.72;;
51298;SDS011;37382;45.192;9.790;2023-09-19T15:22:33;16.25;;;3.13;;
51298;SDS011;37382;45.192;9.790;2023-09-19T15:25:02;17.63;;;3.13;;
51298;SDS011;37382;45.192;9.790;2023-09-19T15:27:31;6.05;;;2.65;;
51298;SDS011;37382;45.192;9.790;2023-09-19T15:29:59;12.13;;;3.20;;
51298;SDS011;37382;45.192;9.790;2023-09-19T15:32:30;9.52;;;2.80;;
51298;SDS011;37382;45.192;9.790;2023-09-19T15:34:59;10.60;;;2.63;;
51298;SDS011;37382;45.192;9.790;2023-09-19T15:37:27;8.10;;;2.50;;
51298;SDS011;37382;45.192;9.790;2023-09-19T15:39:55;13.70;;;3.15;;
51298;SDS011;37382;45.192;9.790;2023-09-19T15:42:23;7.38;;;2.53;;
51298;SDS011;37382;45.192;9.790;2023-09-19T15:44:50;13.68;;;2.63;;
51298;SDS011;37382;45.192;9.790;2023-09-19T15:47:19;11.32;;;2.58;;
51298;SDS011;37382;45.192;9.790;2023-09-19T15:49:47;15.30;;;2.88;;
51298;SDS011;37382;45.192;9.790;2023-09-19T15:52:16;14.23;;;2.47;;
51298;SDS011;37382;45.192;9.790;2023-09-19T15:54:45;6.03;;;2.60;;
51298;SDS011;37382;45.192;9.790;2023-09-19T15:57:14;12.05;;;2.80;;
51298;SDS011;37382;45.192;9.790;2023-09-19T15:59:41;10.70;;;2.47;;
51298;SDS011;37382;45.192;9.790;2023-09-19T16:02:09;11.63;;;2.40;;
51298;SDS011;37382;45.192;9.790;2023-09-19T16:04:36;8.38;;;2.85;;
51298;SDS011;37382;45.192;9.790;2023-09-19T16:07:05;10.60;;;2.65;;
51298;SDS011;37382;45.192;9.790;2023-09-19T16:09:33;8.68;;;2.60;;
51298;SDS011;37382;45.192;9.790;2023-09-19T16:12:02;9.73;;;2.50;;
51298;SDS011;37382;45.192;9.790;2023-09-19T16:14:30;15.27;;;3.00;;
51298;SDS011;37382;45.192;9.790;2023-09-19T16:16:58;9.60;;;2.70;;
51298;SDS011;37382;45.192;9.790;2023-09-19T16:19:27;14.83;;;2.80;;
51298;SDS011;37382;45.192;9.790;2023-09-19T16:21:55;12.95;;;2.72;;
51298;SDS011;37382;45.192;9.790;2023-09-19T16:24:22;10.25;;;2.72;;
51298;SDS011;37382;45.192;9.790;2023-09-19T16:26:50;13.73;;;2.78;;
51298;SDS011;37382;45.192;9.790;2023-09-19T16:29:18;12.05;;;2.72;;
51298;SDS011;37382;45.192;9.790;2023-09-19T16:31:48;12.68;;;3.20;;
51298;SDS011;37382;45.192;9.790;2023-09-19T16:34:16;7.97;;;2.72;;
51298;SDS011;37382;45.192;9.790;2023-09-19T16:36:44;15.85;;;3.05;;
51298;SDS011;37382;45.192;9.790;2023-09-19T16:39:12;11.48;;;2.97;;
51298;SDS011;37382;45.192;9.790;2023-09-19T16:41:41;14.68;;;3.20;;
51298;SDS011;37382;45.192;9.790;2023-09-19T16:44:09;8.00;;;2.53;;
51298;SDS011;37382;45.192;9.790;2023-09-19T16:46:40;12.38;;;2.85;;
51298;SDS011;37382;45.192;9.790;2023-09-19T16:49:08;8.57;;;3.13;;
51298;SDS011;37382;45.192;9.790;2023-09-19T16:51:36;14.52;;;2.88;;
51298;SDS011;37382;45.192;9.790;2023-09-19T16:54:05;8.23;;;2.97;;
51298;SDS011;37382;45.192;9.790;2023-09-19T16:56:33;11.63;;;3.22;;
51298;SDS011;37382;45.192;9.790;2023-09-19T16:59:03;14.70;;;3.25;;
51298;SDS011;37382;45.192;9.790;2023-09-19T17:01:32;8.57;;;2.65;;
51298;SDS011;37382;45.192;9.790;2023-09-19T17:04:04;10.00;;;3.08;;
51298;SDS011;37382;45.192;9.790;2023-09-19T17:06:33;18.17;;;2.97;;
51298;SDS011;37382;45.192;9.790;2023-09-19T17:09:00;17.73;;;3.85;;
51298;SDS011;37382;45.192;9.790;2023-09-19T17:11:28;8.75;;;3.25;;
51298;SDS011;37382;45.192;9.790;2023-09-19T17:13:56;12.50;;;3.35;;
51298;SDS011;37382;45.192;9.790;2023-09-19T17:16:24;17.45;;;4.20;;
51298;SDS011;37382;45.192;9.790;2023-09-19T17:18:56;19.10;;;3.92;;
51298;SDS011;37382;45.192;9.790;2023-09-19T17:21:24;13.73;;;4.80;;
51298;SDS011;37382;45.192;9.790;2023-09-19T17:23:54;14.10;;;3.88;;
51298;SDS011;37382;45.192;9.790;2023-09-19T17:26:22;13.80;;;4.18;;
51298;SDS011;37382;45.192;9.790;2023-09-19T17:28:52;16.05;;;5.57;;
51298;SDS011;37382;45.192;9.790;2023-09-19T17:31:22;24.65;;;5.30;;
51298;SDS011;37382;45.192;9.790;2023-09-19T17:36:21;24.00;;;5.97;;
51298;SDS011;37382;45.192;9.790;2023-09-19T17:38:51;22.02;;;5.68;;
51298;SDS011;37382;45.192;9.790;2023-09-19T17:41:24;13.10;;;4.63;;
51298;SDS011;37382;45.192;9.790;2023-09-19T17:43:53;21.05;;;5.20;;
51298;SDS011;37382;45.192;9.790;2023-09-19T17:46:22;15.32;;;5.80;;
51298;SDS011;37382;45.192;9.790;2023-09-19T17:51:22;14.15;;;5.28;;
51298;SDS011;37382;45.192;9.790;2023-09-19T17:53:50;19.10;;;6.40;;
51298;SDS011;37382;45.192;9.790;2023-09-19T17:56:17;31.35;;;7.38;;
51298;SDS011;37382;45.192;9.790;2023-09-19T17:58:46;18.42;;;6.65;;
51298;SDS011;37382;45.192;9.790;2023-09-19T18:01:21;31.27;;;5.80;;
51298;SDS011;37382;45.192;9.790;2023-09-19T18:03:50;27.65;;;7.32;;
51298;SDS011;37382;45.192;9.790;2023-09-19T18:06:24;28.73;;;7.60;;
51298;SDS011;37382;45.192;9.790;2023-09-19T18:08:52;12.90;;;6.22;;
51298;SDS011;37382;45.192;9.790;2023-09-19T18:11:22;20.27;;;6.10;;
51298;SDS011;37382;45.192;9.790;2023-09-19T18:16:23;23.83;;;6.30;;
51298;SDS011;37382;45.192;9.790;2023-09-19T18:19:01;24.45;;;9.90;;
51298;SDS011;37382;45.192;9.790;2023-09-19T18:21:32;27.33;;;10.30;;
51298;SDS011;37382;45.192;9.790;2023-09-19T18:24:00;23.05;;;9.63;;
51298;SDS011;37382;45.192;9.790;2023-09-19T18:26:30;18.40;;;7.23;;
51298;SDS011;37382;45.192;9.790;2023-09-19T18:29:00;21.27;;;5.63;;
51298;SDS011;37382;45.192;9.790;2023-09-19T18:31:27;23.83;;;5.35;;
51298;SDS011;37382;45.192;9.790;2023-09-19T18:33:56;17.90;;;5.55;;
51298;SDS011;37382;45.192;9.790;2023-09-19T18:36:24;15.90;;;5.63;;
51298;SDS011;37382;45.192;9.790;2023-09-19T18:38:56;19.55;;;5.90;;
51298;SDS011;37382;45.192;9.790;2023-09-19T18:41:24;16.58;;;5.60;;
51298;SDS011;37382;45.192;9.790;2023-09-19T18:43:51;14.70;;;5.47;;
51298;SDS011;37382;45.192;9.790;2023-09-19T18:46:19;19.83;;;5.97;;
51298;SDS011;37382;45.192;9.790;2023-09-19T18:48:51;23.85;;;5.97;;
51298;SDS011;37382;45.192;9.790;2023-09-19T18:51:19;20.50;;;6.57;;
51298;SDS011;37382;45.192;9.790;2023-09-19T18:53:49;27.70;;;6.90;;
51298;SDS011;37382;45.192;9.790;2023-09-19T18:56:37;36.38;;;6.57;;
51298;SDS011;37382;45.192;9.790;2023-09-19T18:59:06;18.70;;;6.80;;
51298;SDS011;37382;45.192;9.790;2023-09-19T19:01:35;28.23;;;6.43;;
51298;SDS011;37382;45.192;9.790;2023-09-19T19:04:03;29.65;;;5.80;;
51298;SDS011;37382;45.192;9.790;2023-09-19T19:06:31;18.70;;;5.60;;
51298;SDS011;37382;45.192;9.790;2023-09-19T19:08:59;32.90;;;6.30;;
51298;SDS011;37382;45.192;9.790;2023-09-19T19:11:27;27.83;;;6.10;;
51298;SDS011;37382;45.192;9.790;2023-09-19T19:13:57;30.20;;;6.50;;
51298;SDS011;37382;45.192;9.790;2023-09-19T19:16:25;36.85;;;7.13;;
51298;SDS011;37382;45.192;9.790;2023-09-19T19:18:54;21.73;;;7.28;;
51298;SDS011;37382;45.192;9.790;2023-09-19T19:21:21;32.45;;;6.63;;
51298;SDS011;37382;45.192;9.790;2023-09-19T19:23:50;28.10;;;7.38;;
51298;SDS011;37382;45.192;9.790;2023-09-19T19:26:21;30.20;;;8.20;;
51298;SDS011;37382;45.192;9.790;2023-09-19T19:28:51;37.05;;;8.52;;
51298;SDS011;37382;45.192;9.790;2023-09-19T19:31:19;16.83;;;6.68;;
51298;SDS011;37382;45.192;9.790;2023-09-19T19:33:50;33.85;;;7.25;;
51298;SDS011;37382;45.192;9.790;2023-09-19T19:36:20;21.38;;;7.03;;
51298;SDS011;37382;45.192;9.790;2023-09-19T19:38:50;21.48;;;6.22;;
51298;SDS011;37382;45.192;9.790;2023-09-19T19:41:19;25.08;;;7.13;;
51298;SDS011;37382;45.192;9.790;2023-09-19T19:43:47;32.05;;;7.43;;
51298;SDS011;37382;45.192;9.790;2023-09-19T19:46:16;36.58;;;7.35;;